sensor_id;sensor_type;location;lat;lon;timestamp;P1;durP1;ratioP1;P2;durP2;ratioP2
32333;SDS011;18810;53.040;8.850;2023-01-05T00:02:22;18.50;;;4.80;;
32333;SDS011;18810;53.040;8.850;2023-01-05T00:04:48;22.40;;;4.05;;
32333;SDS011;18810;53.040;8.850;2023-01-05T00:07:14;20.00;;;4.38;;
32333;SDS011;18810;53.040;8.850;2023-01-05T00:09:40;21.17;;;4.18;;
32333;SDS011;18810;53.040;8.850;2023-01-05T00:12:06;19.48;;;4.43;;
32333;SDS011;18810;53.040;8.850;2023-01-05T00:14:50;23.02;;;5.07;;
32333;SDS011;18810;53.040;8.850;2023-01-05T00:17:34;20.25;;;5.05;;
32333;SDS011;18810;53.040;8.850;2023-01-05T00:20:19;21.52;;;4.72;;
32333;SDS011;18810;53.040;8.850;2023-01-05T00:23:05;13.13;;;3.63;;
32333;SDS011;18810;53.040;8.850;2023-01-05T00:25:32;16.30;;;3.90;;
32333;SDS011;18810;53.040;8.850;2023-01-05T00:28:01;16.65;;;4.63;;
32333;SDS011;18810;53.040;8.850;2023-01-05T00:30:29;16.88;;;4.30;;
32333;SDS011;18810;53.040;8.850;2023-01-05T00:32:58;16.02;;;4.25;;
32333;SDS011;18810;53.040;8.850;2023-01-05T00:35:24;25.17;;;3.83;;
32333;SDS011;18810;53.040;8.850;2023-01-05T00:37:50;17.70;;;4.32;;
32333;SDS011;18810;53.040;8.850;2023-01-05T00:40:17;14.75;;;3.92;;
32333;SDS011;18810;53.040;8.850;2023-01-05T00:42:44;20.02;;;4.32;;
32333;SDS011;18810;53.040;8.850;2023-01-05T00:45:11;17.23;;;3.55;;
32333;SDS011;18810;53.040;8.850;2023-01-05T00:47:38;13.57;;;3.65;;
32333;SDS011;18810;53.040;8.850;2023-01-05T00:50:04;15.55;;;4.03;;
32333;SDS011;18810;53.040;8.850;2023-01-05T00:52:31;10.88;;;3.70;;
32333;SDS011;18810;53.040;8.850;2023-01-05T00:54:56;11.65;;;3.22;;
32333;SDS011;18810;53.040;8.850;2023-01-05T00:57:22;14.50;;;4.05;;
32333;SDS011;18810;53.040;8.850;2023-01-05T00:59:51;12.38;;;3.10;;
32333;SDS011;18810;53.040;8.850;2023-01-05T01:02:16;13.63;;;3.17;;
32333;SDS011;18810;53.040;8.850;2023-01-05T01:04:42;13.45;;;3.67;;
32333;SDS011;18810;53.040;8.850;2023-01-05T01:07:08;12.02;;;3.85;;
32333;SDS011;18810;53.040;8.850;2023-01-05T01:09:34;17.42;;;4.30;;
32333;SDS011;18810;53.040;8.850;2023-01-05T01:12:01;15.75;;;3.75;;
32333;SDS011;18810;53.040;8.850;2023-01-05T01:14:27;15.43;;;3.28;;
32333;SDS011;18810;53.040;8.850;2023-01-05T01:16:53;17.10;;;3.40;;
32333;SDS011;18810;53.040;8.850;2023-01-05T01:19:19;16.38;;;3.33;;
32333;SDS011;18810;53.040;8.850;2023-01-05T01:21:47;16.35;;;3.45;;
32333;SDS011;18810;53.040;8.850;2023-01-05T01:24:17;14.18;;;3.83;;
32333;SDS011;18810;53.040;8.850;2023-01-05T01:26:44;15.05;;;3.30;;
32333;SDS011;18810;53.040;8.850;2023-01-05T01:29:11;13.88;;;3.78;;
32333;SDS011;18810;53.040;8.850;2023-01-05T01:31:37;15.52;;;3.35;;
32333;SDS011;18810;53.040;8.850;2023-01-05T01:34:03;16.98;;;3.83;;
32333;SDS011;18810;53.040;8.850;2023-01-05T01:36:29;17.38;;;4.00;;
32333;SDS011;18810;53.040;8.850;2023-01-05T01:38:55;17.63;;;4.32;;
32333;SDS011;18810;53.040;8.850;2023-01-05T01:41:20;5.88;;;2.95;;
32333;SDS011;18810;53.040;8.850;2023-01-05T01:43:47;12.73;;;3.45;;
32333;SDS011;18810;53.040;8.850;2023-01-05T01:46:19;11.23;;;3.72;;
32333;SDS011;18810;53.040;8.850;2023-01-05T01:51:31;8.27;;;3.00;;
32333;SDS011;18810;53.040;8.850;2023-01-05T01:54:07;7.60;;;3.45;;
32333;SDS011;18810;53.040;8.850;2023-01-05T01:56:36;10.98;;;2.92;;
32333;SDS011;18810;53.040;8.850;2023-01-05T01:59:08;11.68;;;2.80;;
32333;SDS011;18810;53.040;8.850;2023-01-05T02:01:34;11.23;;;2.92;;
32333;SDS011;18810;53.040;8.850;2023-01-05T02:04:00;15.15;;;3.30;;
32333;SDS011;18810;53.040;8.850;2023-01-05T02:06:27;11.70;;;3.55;;
32333;SDS011;18810;53.040;8.850;2023-01-05T02:08:52;12.20;;;3.25;;
32333;SDS011;18810;53.040;8.850;2023-01-05T02:11:23;11.50;;;3.35;;
32333;SDS011;18810;53.040;8.850;2023-01-05T02:22:10;10.30;;;2.55;;
32333;SDS011;18810;53.040;8.850;2023-01-05T02:41:48;7.43;;;2.42;;
32333;SDS011;18810;53.040;8.850;2023-01-05T02:44:08;9.80;;;2.70;;
32333;SDS011;18810;53.040;8.850;2023-01-05T02:46:34;6.72;;;2.08;;
32333;SDS011;18810;53.040;8.850;2023-01-05T02:49:01;4.32;;;1.90;;
32333;SDS011;18810;53.040;8.850;2023-01-05T02:51:33;7.97;;;1.90;;
32333;SDS011;18810;53.040;8.850;2023-01-05T02:54:09;5.95;;;2.15;;
32333;SDS011;18810;53.040;8.850;2023-01-05T02:56:42;9.13;;;2.65;;
32333;SDS011;18810;53.040;8.850;2023-01-05T03:01:53;7.68;;;2.60;;
32333;SDS011;18810;53.040;8.850;2023-01-05T03:04:47;11.95;;;2.83;;
32333;SDS011;18810;53.040;8.850;2023-01-05T03:07:38;10.23;;;3.80;;
32333;SDS011;18810;53.040;8.850;2023-01-05T03:10:06;10.02;;;3.40;;
32333;SDS011;18810;53.040;8.850;2023-01-05T03:12:53;11.45;;;3.38;;
32333;SDS011;18810;53.040;8.850;2023-01-05T03:15:39;10.70;;;3.20;;
32333;SDS011;18810;53.040;8.850;2023-01-05T03:18:09;17.70;;;3.95;;
32333;SDS011;18810;53.040;8.850;2023-01-05T03:20:39;13.87;;;4.20;;
32333;SDS011;18810;53.040;8.850;2023-01-05T03:23:09;13.20;;;4.18;;
32333;SDS011;18810;53.040;8.850;2023-01-05T03:25:56;16.15;;;4.28;;
32333;SDS011;18810;53.040;8.850;2023-01-05T03:28:41;14.35;;;5.20;;
32333;SDS011;18810;53.040;8.850;2023-01-05T03:31:55;21.40;;;5.05;;
32333;SDS011;18810;53.040;8.850;2023-01-05T03:34:45;19.98;;;4.50;;
32333;SDS011;18810;53.040;8.850;2023-01-05T03:37:43;16.67;;;3.92;;
32333;SDS011;18810;53.040;8.850;2023-01-05T03:40:21;14.82;;;4.82;;
32333;SDS011;18810;53.040;8.850;2023-01-05T03:42:51;20.30;;;4.57;;
32333;SDS011;18810;53.040;8.850;2023-01-05T03:45:18;16.33;;;4.50;;
32333;SDS011;18810;53.040;8.850;2023-01-05T03:47:44;19.75;;;4.45;;
32333;SDS011;18810;53.040;8.850;2023-01-05T03:50:10;17.55;;;5.03;;
32333;SDS011;18810;53.040;8.850;2023-01-05T03:52:36;14.57;;;4.35;;
32333;SDS011;18810;53.040;8.850;2023-01-05T03:55:02;15.57;;;4.00;;
32333;SDS011;18810;53.040;8.850;2023-01-05T03:57:28;19.02;;;4.43;;
32333;SDS011;18810;53.040;8.850;2023-01-05T03:59:53;17.80;;;4.85;;
32333;SDS011;18810;53.040;8.850;2023-01-05T04:02:19;24.25;;;5.35;;
32333;SDS011;18810;53.040;8.850;2023-01-05T04:04:45;16.05;;;4.40;;
32333;SDS011;18810;53.040;8.850;2023-01-05T04:07:10;21.25;;;4.57;;
32333;SDS011;18810;53.040;8.850;2023-01-05T04:09:36;17.48;;;4.47;;
32333;SDS011;18810;53.040;8.850;2023-01-05T04:12:02;18.48;;;4.28;;
32333;SDS011;18810;53.040;8.850;2023-01-05T04:14:28;23.33;;;5.38;;
32333;SDS011;18810;53.040;8.850;2023-01-05T04:16:53;20.92;;;4.05;;
32333;SDS011;18810;53.040;8.850;2023-01-05T04:19:19;18.45;;;4.38;;
32333;SDS011;18810;53.040;8.850;2023-01-05T04:21:45;13.68;;;3.72;;
32333;SDS011;18810;53.040;8.850;2023-01-05T04:24:11;14.52;;;3.70;;
32333;SDS011;18810;53.040;8.850;2023-01-05T04:26:36;21.17;;;4.93;;
32333;SDS011;18810;53.040;8.850;2023-01-05T04:29:03;14.48;;;4.18;;
32333;SDS011;18810;53.040;8.850;2023-01-05T04:31:29;15.98;;;4.20;;
32333;SDS011;18810;53.040;8.850;2023-01-05T04:33:55;12.02;;;3.65;;
32333;SDS011;18810;53.040;8.850;2023-01-05T04:36:21;11.73;;;3.70;;
32333;SDS011;18810;53.040;8.850;2023-01-05T04:38:47;18.45;;;4.28;;
32333;SDS011;18810;53.040;8.850;2023-01-05T04:41:13;16.08;;;4.03;;
32333;SDS011;18810;53.040;8.850;2023-01-05T04:43:39;16.48;;;4.40;;
32333;SDS011;18810;53.040;8.850;2023-01-05T04:46:05;13.75;;;3.97;;
32333;SDS011;18810;53.040;8.850;2023-01-05T04:48:31;18.90;;;4.10;;
32333;SDS011;18810;53.040;8.850;2023-01-05T04:50:56;15.75;;;4.60;;
32333;SDS011;18810;53.040;8.850;2023-01-05T04:53:23;19.70;;;4.45;;
32333;SDS011;18810;53.040;8.850;2023-01-05T04:55:49;18.88;;;4.55;;
32333;SDS011;18810;53.040;8.850;2023-01-05T04:58:15;15.93;;;3.95;;
32333;SDS011;18810;53.040;8.850;2023-01-05T05:00:41;18.05;;;4.45;;
32333;SDS011;18810;53.040;8.850;2023-01-05T05:03:07;18.15;;;4.45;;
32333;SDS011;18810;53.040;8.850;2023-01-05T05:05:33;14.45;;;3.90;;
32333;SDS011;18810;53.040;8.850;2023-01-05T05:07:59;21.85;;;3.92;;
32333;SDS011;18810;53.040;8.850;2023-01-05T05:10:25;22.75;;;4.90;;
32333;SDS011;18810;53.040;8.850;2023-01-05T05:12:51;20.48;;;5.40;;
32333;SDS011;18810;53.040;8.850;2023-01-05T05:15:17;20.48;;;5.30;;
32333;SDS011;18810;53.040;8.850;2023-01-05T05:17:43;21.83;;;5.25;;
32333;SDS011;18810;53.040;8.850;2023-01-05T05:20:09;20.65;;;4.50;;
32333;SDS011;18810;53.040;8.850;2023-01-05T05:22:34;24.10;;;5.00;;
32333;SDS011;18810;53.040;8.850;2023-01-05T05:25:00;15.75;;;4.82;;
32333;SDS011;18810;53.040;8.850;2023-01-05T05:27:26;15.98;;;4.82;;
32333;SDS011;18810;53.040;8.850;2023-01-05T05:29:51;17.08;;;4.55;;
32333;SDS011;18810;53.040;8.850;2023-01-05T05:32:17;18.40;;;5.68;;
32333;SDS011;18810;53.040;8.850;2023-01-05T05:34:43;21.45;;;5.20;;
32333;SDS011;18810;53.040;8.850;2023-01-05T05:37:08;18.38;;;5.38;;
32333;SDS011;18810;53.040;8.850;2023-01-05T05:39:34;16.00;;;5.22;;
32333;SDS011;18810;53.040;8.850;2023-01-05T05:42:00;17.23;;;4.70;;
32333;SDS011;18810;53.040;8.850;2023-01-05T05:44:25;18.98;;;4.90;;
32333;SDS011;18810;53.040;8.850;2023-01-05T05:46:51;17.20;;;4.20;;
32333;SDS011;18810;53.040;8.850;2023-01-05T05:49:17;14.52;;;4.07;;
32333;SDS011;18810;53.040;8.850;2023-01-05T05:51:43;22.10;;;5.28;;
32333;SDS011;18810;53.040;8.850;2023-01-05T05:54:09;18.00;;;4.20;;
32333;SDS011;18810;53.040;8.850;2023-01-05T05:56:37;13.55;;;4.00;;
32333;SDS011;18810;53.040;8.850;2023-01-05T05:59:03;21.25;;;4.20;;
32333;SDS011;18810;53.040;8.850;2023-01-05T06:01:29;24.23;;;5.18;;
32333;SDS011;18810;53.040;8.850;2023-01-05T06:03:54;16.75;;;4.43;;
32333;SDS011;18810;53.040;8.850;2023-01-05T06:06:23;14.80;;;4.80;;
32333;SDS011;18810;53.040;8.850;2023-01-05T06:08:49;18.48;;;4.78;;
32333;SDS011;18810;53.040;8.850;2023-01-05T06:11:17;16.38;;;4.72;;
32333;SDS011;18810;53.040;8.850;2023-01-05T06:13:43;18.05;;;3.92;;
32333;SDS011;18810;53.040;8.850;2023-01-05T06:16:08;12.63;;;4.05;;
32333;SDS011;18810;53.040;8.850;2023-01-05T06:18:34;19.20;;;4.82;;
32333;SDS011;18810;53.040;8.850;2023-01-05T06:21:00;16.85;;;5.13;;
32333;SDS011;18810;53.040;8.850;2023-01-05T06:23:26;16.55;;;4.65;;
32333;SDS011;18810;53.040;8.850;2023-01-05T06:25:51;21.20;;;5.80;;
32333;SDS011;18810;53.040;8.850;2023-01-05T06:28:17;18.08;;;4.70;;
32333;SDS011;18810;53.040;8.850;2023-01-05T06:30:43;15.98;;;4.43;;
32333;SDS011;18810;53.040;8.850;2023-01-05T06:33:08;24.20;;;5.68;;
32333;SDS011;18810;53.040;8.850;2023-01-05T06:35:34;20.00;;;4.22;;
32333;SDS011;18810;53.040;8.850;2023-01-05T06:38:00;24.20;;;4.85;;
32333;SDS011;18810;53.040;8.850;2023-01-05T06:40:25;18.13;;;4.03;;
32333;SDS011;18810;53.040;8.850;2023-01-05T06:42:51;14.70;;;3.70;;
32333;SDS011;18810;53.040;8.850;2023-01-05T06:45:17;14.68;;;3.88;;
32333;SDS011;18810;53.040;8.850;2023-01-05T06:47:43;24.85;;;5.05;;
32333;SDS011;18810;53.040;8.850;2023-01-05T06:50:09;13.98;;;5.07;;
32333;SDS011;18810;53.040;8.850;2023-01-05T06:52:35;19.52;;;4.85;;
32333;SDS011;18810;53.040;8.850;2023-01-05T06:55:04;18.25;;;4.13;;
32333;SDS011;18810;53.040;8.850;2023-01-05T06:57:34;17.40;;;4.93;;
32333;SDS011;18810;53.040;8.850;2023-01-05T07:00:02;22.20;;;4.95;;
32333;SDS011;18810;53.040;8.850;2023-01-05T07:02:29;13.43;;;3.75;;
32333;SDS011;18810;53.040;8.850;2023-01-05T07:04:55;16.15;;;4.25;;
32333;SDS011;18810;53.040;8.850;2023-01-05T07:07:21;17.08;;;4.35;;
32333;SDS011;18810;53.040;8.850;2023-01-05T07:09:46;15.60;;;4.85;;
32333;SDS011;18810;53.040;8.850;2023-01-05T07:12:13;19.95;;;4.18;;
32333;SDS011;18810;53.040;8.850;2023-01-05T07:14:39;17.17;;;3.90;;
32333;SDS011;18810;53.040;8.850;2023-01-05T07:17:05;19.90;;;4.88;;
32333;SDS011;18810;53.040;8.850;2023-01-05T07:19:31;18.65;;;4.15;;
32333;SDS011;18810;53.040;8.850;2023-01-05T07:21:57;23.63;;;4.85;;
32333;SDS011;18810;53.040;8.850;2023-01-05T07:24:22;14.18;;;4.07;;
32333;SDS011;18810;53.040;8.850;2023-01-05T07:26:48;14.88;;;4.55;;
32333;SDS011;18810;53.040;8.850;2023-01-05T07:29:14;20.90;;;4.85;;
32333;SDS011;18810;53.040;8.850;2023-01-05T07:31:40;14.27;;;4.75;;
32333;SDS011;18810;53.040;8.850;2023-01-05T07:34:07;18.15;;;4.80;;
32333;SDS011;18810;53.040;8.850;2023-01-05T07:36:33;27.35;;;5.47;;
32333;SDS011;18810;53.040;8.850;2023-01-05T07:38:59;24.00;;;4.28;;
32333;SDS011;18810;53.040;8.850;2023-01-05T07:41:25;22.13;;;4.78;;
32333;SDS011;18810;53.040;8.850;2023-01-05T07:43:50;14.90;;;4.20;;
32333;SDS011;18810;53.040;8.850;2023-01-05T07:46:16;14.60;;;4.47;;
32333;SDS011;18810;53.040;8.850;2023-01-05T07:48:42;20.55;;;4.50;;
32333;SDS011;18810;53.040;8.850;2023-01-05T07:51:08;17.70;;;5.03;;
32333;SDS011;18810;53.040;8.850;2023-01-05T07:53:36;16.42;;;4.53;;
32333;SDS011;18810;53.040;8.850;2023-01-05T07:56:03;17.98;;;4.05;;
32333;SDS011;18810;53.040;8.850;2023-01-05T07:58:30;19.27;;;5.18;;
32333;SDS011;18810;53.040;8.850;2023-01-05T08:01:00;8.90;;;3.47;;
32333;SDS011;18810;53.040;8.850;2023-01-05T08:03:33;13.80;;;4.25;;
32333;SDS011;18810;53.040;8.850;2023-01-05T08:06:03;13.85;;;3.40;;
32333;SDS011;18810;53.040;8.850;2023-01-05T08:08:30;11.45;;;3.47;;
32333;SDS011;18810;53.040;8.850;2023-01-05T08:10:56;13.93;;;2.95;;
32333;SDS011;18810;53.040;8.850;2023-01-05T08:13:21;9.35;;;2.30;;
32333;SDS011;18810;53.040;8.850;2023-01-05T08:16:05;7.15;;;2.17;;
32333;SDS011;18810;53.040;8.850;2023-01-05T08:18:31;7.13;;;1.75;;
32333;SDS011;18810;53.040;8.850;2023-01-05T08:20:58;5.20;;;1.52;;
32333;SDS011;18810;53.040;8.850;2023-01-05T08:23:28;8.38;;;1.90;;
32333;SDS011;18810;53.040;8.850;2023-01-05T08:25:55;5.15;;;1.48;;
32333;SDS011;18810;53.040;8.850;2023-01-05T08:28:21;8.55;;;1.85;;
32333;SDS011;18810;53.040;8.850;2023-01-05T08:30:48;4.75;;;1.60;;
32333;SDS011;18810;53.040;8.850;2023-01-05T08:33:14;7.47;;;1.67;;
32333;SDS011;18810;53.040;8.850;2023-01-05T08:35:40;4.63;;;1.27;;
32333;SDS011;18810;53.040;8.850;2023-01-05T08:38:07;7.05;;;1.52;;
32333;SDS011;18810;53.040;8.850;2023-01-05T08:40:33;5.32;;;1.33;;
32333;SDS011;18810;53.040;8.850;2023-01-05T08:43:00;4.68;;;1.50;;
32333;SDS011;18810;53.040;8.850;2023-01-05T08:45:26;3.42;;;1.23;;
32333;SDS011;18810;53.040;8.850;2023-01-05T08:47:51;2.15;;;1.30;;
32333;SDS011;18810;53.040;8.850;2023-01-05T08:50:17;6.13;;;1.58;;
32333;SDS011;18810;53.040;8.850;2023-01-05T08:52:43;4.97;;;1.55;;
32333;SDS011;18810;53.040;8.850;2023-01-05T08:55:08;8.13;;;1.55;;
32333;SDS011;18810;53.040;8.850;2023-01-05T08:57:34;5.30;;;1.30;;
32333;SDS011;18810;53.040;8.850;2023-01-05T09:00:00;3.28;;;1.27;;
32333;SDS011;18810;53.040;8.850;2023-01-05T09:02:26;6.53;;;1.52;;
32333;SDS011;18810;53.040;8.850;2023-01-05T09:04:52;5.00;;;1.23;;
32333;SDS011;18810;53.040;8.850;2023-01-05T09:07:17;5.40;;;1.88;;
32333;SDS011;18810;53.040;8.850;2023-01-05T09:09:44;7.82;;;1.52;;
32333;SDS011;18810;53.040;8.850;2023-01-05T09:12:09;3.60;;;1.30;;
32333;SDS011;18810;53.040;8.850;2023-01-05T09:14:35;6.88;;;1.55;;
32333;SDS011;18810;53.040;8.850;2023-01-05T09:17:02;5.63;;;1.85;;
32333;SDS011;18810;53.040;8.850;2023-01-05T09:19:27;5.82;;;2.10;;
32333;SDS011;18810;53.040;8.850;2023-01-05T09:21:53;4.40;;;1.65;;
32333;SDS011;18810;53.040;8.850;2023-01-05T09:24:20;4.70;;;1.73;;
32333;SDS011;18810;53.040;8.850;2023-01-05T09:26:45;3.60;;;1.80;;
32333;SDS011;18810;53.040;8.850;2023-01-05T09:29:11;4.38;;;1.85;;
32333;SDS011;18810;53.040;8.850;2023-01-05T09:31:41;5.18;;;1.77;;
32333;SDS011;18810;53.040;8.850;2023-01-05T09:34:07;7.25;;;1.50;;
32333;SDS011;18810;53.040;8.850;2023-01-05T09:36:32;9.18;;;1.73;;
32333;SDS011;18810;53.040;8.850;2023-01-05T09:38:58;3.53;;;1.55;;
32333;SDS011;18810;53.040;8.850;2023-01-05T09:41:25;7.10;;;1.92;;
32333;SDS011;18810;53.040;8.850;2023-01-05T09:47:09;4.80;;;1.35;;
32333;SDS011;18810;53.040;8.850;2023-01-05T09:49:42;4.72;;;1.67;;
32333;SDS011;18810;53.040;8.850;2023-01-05T09:52:11;6.03;;;1.95;;
32333;SDS011;18810;53.040;8.850;2023-01-05T09:54:38;11.20;;;2.22;;
32333;SDS011;18810;53.040;8.850;2023-01-05T09:57:05;10.43;;;1.95;;
32333;SDS011;18810;53.040;8.850;2023-01-05T09:59:42;9.35;;;2.60;;
32333;SDS011;18810;53.040;8.850;2023-01-05T10:02:14;5.82;;;1.50;;
32333;SDS011;18810;53.040;8.850;2023-01-05T10:04:59;6.00;;;1.83;;
32333;SDS011;18810;53.040;8.850;2023-01-05T10:10:05;7.95;;;1.88;;
32333;SDS011;18810;53.040;8.850;2023-01-05T10:12:48;9.50;;;1.55;;
32333;SDS011;18810;53.040;8.850;2023-01-05T10:15:45;7.85;;;2.00;;
32333;SDS011;18810;53.040;8.850;2023-01-05T10:18:14;9.38;;;2.15;;
32333;SDS011;18810;53.040;8.850;2023-01-05T10:29:14;5.50;;;1.85;;
32333;SDS011;18810;53.040;8.850;2023-01-05T10:31:45;5.28;;;1.85;;
32333;SDS011;18810;53.040;8.850;2023-01-05T10:37:36;8.52;;;2.10;;
32333;SDS011;18810;53.040;8.850;2023-01-05T10:42:57;9.98;;;2.00;;
32333;SDS011;18810;53.040;8.850;2023-01-05T10:45:29;9.65;;;2.40;;
32333;SDS011;18810;53.040;8.850;2023-01-05T10:47:55;8.43;;;2.15;;
32333;SDS011;18810;53.040;8.850;2023-01-05T10:53:13;9.13;;;1.90;;
32333;SDS011;18810;53.040;8.850;2023-01-05T10:58:19;10.48;;;1.48;;
32333;SDS011;18810;53.040;8.850;2023-01-05T11:01:37;7.85;;;1.70;;
32333;SDS011;18810;53.040;8.850;2023-01-05T11:03:50;10.07;;;1.92;;
32333;SDS011;18810;53.040;8.850;2023-01-05T11:06:22;7.30;;;1.50;;
32333;SDS011;18810;53.040;8.850;2023-01-05T11:08:51;6.88;;;1.77;;
32333;SDS011;18810;53.040;8.850;2023-01-05T11:11:24;8.70;;;1.90;;
32333;SDS011;18810;53.040;8.850;2023-01-05T11:13:56;9.77;;;1.88;;
32333;SDS011;18810;53.040;8.850;2023-01-05T11:16:26;9.73;;;2.08;;
32333;SDS011;18810;53.040;8.850;2023-01-05T11:19:05;11.68;;;2.38;;
32333;SDS011;18810;53.040;8.850;2023-01-05T11:24:24;7.47;;;1.75;;
32333;SDS011;18810;53.040;8.850;2023-01-05T11:26:56;9.77;;;2.13;;
32333;SDS011;18810;53.040;8.850;2023-01-05T11:29:23;8.13;;;1.95;;
32333;SDS011;18810;53.040;8.850;2023-01-05T11:37:03;8.18;;;1.70;;
32333;SDS011;18810;53.040;8.850;2023-01-05T11:42:17;8.45;;;1.80;;
32333;SDS011;18810;53.040;8.850;2023-01-05T11:44:45;6.68;;;1.73;;
32333;SDS011;18810;53.040;8.850;2023-01-05T11:47:39;5.80;;;1.67;;
32333;SDS011;18810;53.040;8.850;2023-01-05T11:57:47;9.55;;;2.28;;
32333;SDS011;18810;53.040;8.850;2023-01-05T12:00:21;5.55;;;1.70;;
32333;SDS011;18810;53.040;8.850;2023-01-05T12:05:51;8.57;;;1.63;;
32333;SDS011;18810;53.040;8.850;2023-01-05T12:08:22;6.15;;;2.33;;
32333;SDS011;18810;53.040;8.850;2023-01-05T12:11:21;7.95;;;1.70;;
32333;SDS011;18810;53.040;8.850;2023-01-05T12:16:58;7.17;;;1.73;;
32333;SDS011;18810;53.040;8.850;2023-01-05T12:19:55;8.85;;;1.70;;
32333;SDS011;18810;53.040;8.850;2023-01-05T12:23:15;5.25;;;1.73;;
32333;SDS011;18810;53.040;8.850;2023-01-05T12:25:27;6.38;;;1.58;;
32333;SDS011;18810;53.040;8.850;2023-01-05T12:30:53;5.07;;;1.77;;
32333;SDS011;18810;53.040;8.850;2023-01-05T12:33:27;5.60;;;1.85;;
32333;SDS011;18810;53.040;8.850;2023-01-05T12:36:10;6.47;;;1.60;;
32333;SDS011;18810;53.040;8.850;2023-01-05T12:41:46;6.07;;;1.80;;
32333;SDS011;18810;53.040;8.850;2023-01-05T12:49:47;7.25;;;1.70;;
32333;SDS011;18810;53.040;8.850;2023-01-05T12:52:19;8.02;;;1.88;;
32333;SDS011;18810;53.040;8.850;2023-01-05T12:54:59;5.10;;;1.35;;
32333;SDS011;18810;53.040;8.850;2023-01-05T12:57:38;8.88;;;1.48;;
32333;SDS011;18810;53.040;8.850;2023-01-05T13:00:10;5.40;;;1.55;;
32333;SDS011;18810;53.040;8.850;2023-01-05T13:02:40;9.35;;;1.73;;
32333;SDS011;18810;53.040;8.850;2023-01-05T13:08:57;7.18;;;1.90;;
32333;SDS011;18810;53.040;8.850;2023-01-05T13:11:30;6.32;;;1.40;;
32333;SDS011;18810;53.040;8.850;2023-01-05T13:14:06;6.47;;;1.63;;
32333;SDS011;18810;53.040;8.850;2023-01-05T13:16:57;6.82;;;1.50;;
32333;SDS011;18810;53.040;8.850;2023-01-05T13:19:31;4.50;;;1.45;;
32333;SDS011;18810;53.040;8.850;2023-01-05T13:22:00;6.95;;;1.75;;
32333;SDS011;18810;53.040;8.850;2023-01-05T13:26:58;7.05;;;1.40;;
32333;SDS011;18810;53.040;8.850;2023-01-05T13:29:28;7.10;;;1.77;;
32333;SDS011;18810;53.040;8.850;2023-01-05T13:32:06;5.63;;;1.48;;
32333;SDS011;18810;53.040;8.850;2023-01-05T13:45:58;5.30;;;1.73;;
32333;SDS011;18810;53.040;8.850;2023-01-05T13:48:39;6.38;;;1.50;;
32333;SDS011;18810;53.040;8.850;2023-01-05T13:54:16;5.90;;;1.38;;
32333;SDS011;18810;53.040;8.850;2023-01-05T13:57:13;5.22;;;1.45;;
32333;SDS011;18810;53.040;8.850;2023-01-05T13:59:43;5.22;;;1.45;;
32333;SDS011;18810;53.040;8.850;2023-01-05T14:05:04;8.63;;;1.48;;
32333;SDS011;18810;53.040;8.850;2023-01-05T14:07:39;6.28;;;1.50;;
32333;SDS011;18810;53.040;8.850;2023-01-05T14:10:05;4.45;;;1.77;;
32333;SDS011;18810;53.040;8.850;2023-01-05T14:12:46;4.90;;;1.40;;
32333;SDS011;18810;53.040;8.850;2023-01-05T14:17:53;6.43;;;2.28;;
32333;SDS011;18810;53.040;8.850;2023-01-05T14:23:00;6.53;;;1.70;;
32333;SDS011;18810;53.040;8.850;2023-01-05T14:30:47;5.40;;;1.60;;
32333;SDS011;18810;53.040;8.850;2023-01-05T14:33:15;5.95;;;1.50;;
32333;SDS011;18810;53.040;8.850;2023-01-05T14:35:42;5.80;;;1.90;;
32333;SDS011;18810;53.040;8.850;2023-01-05T14:38:24;6.70;;;2.17;;
32333;SDS011;18810;53.040;8.850;2023-01-05T14:40:50;5.05;;;1.80;;
32333;SDS011;18810;53.040;8.850;2023-01-05T14:48:33;7.10;;;2.53;;
32333;SDS011;18810;53.040;8.850;2023-01-05T14:51:07;6.22;;;2.47;;
32333;SDS011;18810;53.040;8.850;2023-01-05T14:53:43;8.73;;;2.20;;
32333;SDS011;18810;53.040;8.850;2023-01-05T15:26:06;7.72;;;2.65;;
32333;SDS011;18810;53.040;8.850;2023-01-05T15:28:54;12.23;;;2.75;;
32333;SDS011;18810;53.040;8.850;2023-01-05T15:31:54;11.07;;;2.80;;
32333;SDS011;18810;53.040;8.850;2023-01-05T15:34:54;5.40;;;2.45;;
32333;SDS011;18810;53.040;8.850;2023-01-05T15:37:32;9.38;;;2.45;;
32333;SDS011;18810;53.040;8.850;2023-01-05T15:40:00;9.30;;;2.70;;
32333;SDS011;18810;53.040;8.850;2023-01-05T15:42:44;6.38;;;2.40;;
32333;SDS011;18810;53.040;8.850;2023-01-05T15:47:43;5.22;;;2.15;;
32333;SDS011;18810;53.040;8.850;2023-01-05T15:50:18;7.82;;;2.50;;
32333;SDS011;18810;53.040;8.850;2023-01-05T15:52:56;8.73;;;2.20;;
32333;SDS011;18810;53.040;8.850;2023-01-05T15:55:24;6.32;;;2.47;;
32333;SDS011;18810;53.040;8.850;2023-01-05T16:02:52;5.65;;;2.95;;
32333;SDS011;18810;53.040;8.850;2023-01-05T16:05:29;5.05;;;2.20;;
32333;SDS011;18810;53.040;8.850;2023-01-05T16:08:10;7.95;;;2.95;;
32333;SDS011;18810;53.040;8.850;2023-01-05T16:10:42;9.90;;;2.97;;
32333;SDS011;18810;53.040;8.850;2023-01-05T16:13:18;7.22;;;2.50;;
32333;SDS011;18810;53.040;8.850;2023-01-05T16:15:58;11.45;;;2.75;;
32333;SDS011;18810;53.040;8.850;2023-01-05T16:18:36;5.93;;;2.60;;
32333;SDS011;18810;53.040;8.850;2023-01-05T16:21:28;7.40;;;2.17;;
32333;SDS011;18810;53.040;8.850;2023-01-05T16:24:17;5.20;;;2.33;;
32333;SDS011;18810;53.040;8.850;2023-01-05T16:27:01;6.32;;;2.65;;
32333;SDS011;18810;53.040;8.850;2023-01-05T16:29:32;6.45;;;2.22;;
32333;SDS011;18810;53.040;8.850;2023-01-05T16:32:00;8.05;;;3.03;;
32333;SDS011;18810;53.040;8.850;2023-01-05T16:34:26;9.25;;;3.17;;
32333;SDS011;18810;53.040;8.850;2023-01-05T16:39:30;8.80;;;4.22;;
32333;SDS011;18810;53.040;8.850;2023-01-05T16:42:13;9.82;;;3.63;;
32333;SDS011;18810;53.040;8.850;2023-01-05T16:44:59;10.35;;;3.33;;
32333;SDS011;18810;53.040;8.850;2023-01-05T16:47:38;8.63;;;3.25;;
32333;SDS011;18810;53.040;8.850;2023-01-05T16:50:39;10.55;;;3.95;;
32333;SDS011;18810;53.040;8.850;2023-01-05T16:53:04;10.43;;;4.10;;
32333;SDS011;18810;53.040;8.850;2023-01-05T16:55:36;8.88;;;3.47;;
32333;SDS011;18810;53.040;8.850;2023-01-05T16:58:48;9.10;;;3.03;;
32333;SDS011;18810;53.040;8.850;2023-01-05T17:03:40;5.63;;;2.80;;
32333;SDS011;18810;53.040;8.850;2023-01-05T17:06:28;12.40;;;3.35;;
32333;SDS011;18810;53.040;8.850;2023-01-05T17:08:54;9.48;;;3.08;;
32333;SDS011;18810;53.040;8.850;2023-01-05T17:11:30;7.55;;;2.83;;
32333;SDS011;18810;53.040;8.850;2023-01-05T17:13:59;8.02;;;3.15;;
32333;SDS011;18810;53.040;8.850;2023-01-05T17:16:26;9.50;;;3.83;;
32333;SDS011;18810;53.040;8.850;2023-01-05T17:18:52;6.75;;;3.10;;
32333;SDS011;18810;53.040;8.850;2023-01-05T17:21:22;7.22;;;3.22;;
32333;SDS011;18810;53.040;8.850;2023-01-05T17:23:52;8.45;;;2.80;;
32333;SDS011;18810;53.040;8.850;2023-01-05T17:26:20;7.10;;;3.20;;
32333;SDS011;18810;53.040;8.850;2023-01-05T17:28:48;8.82;;;3.72;;
32333;SDS011;18810;53.040;8.850;2023-01-05T17:31:13;9.60;;;4.28;;
32333;SDS011;18810;53.040;8.850;2023-01-05T17:33:39;14.50;;;4.30;;
32333;SDS011;18810;53.040;8.850;2023-01-05T17:36:05;10.57;;;4.05;;
32333;SDS011;18810;53.040;8.850;2023-01-05T17:38:31;8.35;;;3.90;;
32333;SDS011;18810;53.040;8.850;2023-01-05T17:40:57;10.07;;;4.28;;
32333;SDS011;18810;53.040;8.850;2023-01-05T17:43:23;11.35;;;5.00;;
32333;SDS011;18810;53.040;8.850;2023-01-05T17:45:49;7.28;;;4.97;;
32333;SDS011;18810;53.040;8.850;2023-01-05T17:48:15;12.35;;;5.65;;
32333;SDS011;18810;53.040;8.850;2023-01-05T17:50:41;8.80;;;4.80;;
32333;SDS011;18810;53.040;8.850;2023-01-05T17:53:07;11.88;;;6.03;;
32333;SDS011;18810;53.040;8.850;2023-01-05T17:55:33;13.15;;;6.20;;